Time,TemperatureF,DewpointF,PressureIn,WindDirection,WindDirectionDegrees,WindSpeedMPH,WindSpeedGustMPH,Humidity,HourlyPrecipIn,Conditions,Clouds,dailyrainin,SoftwareType,DateUTC
2013-01-25 00:01:00,50.3,41.6,30.20,East,91,1.0,1.0,72,0.00,,SKC,0.00,VWS V14.01,2013-01-25 07:01:00,
2013-01-25 00:06:00,50.3,41.6,30.20,East,92,1.0,1.0,72,0.00,,SKC,0.00,VWS V14.01,2013-01-25 07:06:00,
2013-01-25 00:11:00,50.0,42.7,30.19,East,91,1.0,1.0,76,0.00,,SKC,0.00,VWS V14.01,2013-01-25 07:11:00,
2013-01-25 00:16:00,49.9,42.7,30.19,East,91,0.0,1.0,76,0.00,,SKC,0.00,VWS V14.01,2013-01-25 07:16:00,
2013-01-25 00:21:00,49.8,41.9,30.20,East,92,0.0,1.0,74,0.00,,SKC,0.00,VWS V14.01,2013-01-25 07:21:00,
2013-01-25 00:26:00,49.9,41.6,30.20,East,91,0.0,1.0,73,0.00,,SKC,0.00,VWS V14.01,2013-01-25 07:26:00,
2013-01-25 00:31:00,50.1,41.4,30.20,East,93,0.0,1.0,72,0.00,,SKC,0.00,VWS V14.01,2013-01-25 07:31:00,
2013-01-25 00:36:00,50.3,41.3,30.19,East,93,1.0,1.0,71,0.00,,SKC,0.00,VWS V14.01,2013-01-25 07:36:00,
2013-01-25 00:41:00,50.2,41.2,30.19,East,87,1.0,2.0,71,0.00,,SKC,0.00,VWS V14.01,2013-01-25 07:41:00,
2013-01-25 00:46:00,50.2,41.2,30.18,NE,52,2.0,2.0,71,0.00,,SKC,0.00,VWS V14.01,2013-01-25 07:46:00,
2013-01-25 00:51:00,50.3,41.3,30.17,NE,53,2.0,2.0,71,0.00,,SKC,0.00,VWS V14.01,2013-01-25 07:51:00,
2013-01-25 00:57:00,50.5,41.1,30.17,NE,34,2.0,3.0,70,0.00,,SKC,0.00,VWS V14.01,2013-01-25 07:57:00,
2013-01-25 01:02:00,50.4,41.0,30.17,NE,44,0.0,0.0,70,0.00,,SKC,0.00,VWS V14.01,2013-01-25 08:02:00,
2013-01-25 01:07:00,50.3,40.9,30.18,NE,44,1.0,1.0,70,0.00,,SKC,0.00,VWS V14.01,2013-01-25 08:07:00,
2013-01-25 01:12:00,50.2,40.8,30.18,SE,124,3.0,3.0,70,0.00,,SKC,0.00,VWS V14.01,2013-01-25 08:12:00,
2013-01-25 01:17:00,50.0,40.6,30.18,SE,127,2.0,3.0,70,0.00,,SKC,0.00,VWS V14.01,2013-01-25 08:17:00,
2013-01-25 01:22:00,50.0,41.0,30.18,NNE,22,0.0,3.0,71,0.00,,SKC,0.00,VWS V14.01,2013-01-25 08:22:00,
2013-01-25 01:27:00,50.0,41.0,30.18,ENE,60,2.0,3.0,71,0.00,,SKC,0.00,VWS V14.01,2013-01-25 08:27:00,
2013-01-25 01:32:00,50.1,41.1,30.18,NE,54,1.0,2.0,71,0.00,,SKC,0.00,VWS V14.01,2013-01-25 08:32:00,
2013-01-25 01:37:00,50.4,41.4,30.17,NE,41,3.0,4.0,71,0.00,,SKC,0.00,VWS V14.01,2013-01-25 08:37:00,
2013-01-25 01:42:00,50.8,41.4,30.18,ENE,67,2.0,4.0,70,0.00,,SKC,0.00,VWS V14.01,2013-01-25 08:42:00,
2013-01-25 01:47:00,50.7,41.3,30.18,ENE,67,1.0,4.0,70,0.00,,SKC,0.00,VWS V14.01,2013-01-25 08:47:00,
2013-01-25 01:52:00,50.3,41.3,30.17,North,10,2.0,4.0,71,0.00,,SKC,0.00,VWS V14.01,2013-01-25 08:52:00,
2013-01-25 01:57:00,49.9,40.9,30.17,North,11,1.0,4.0,71,0.00,,SKC,0.00,VWS V14.01,2013-01-25 08:57:00,
2013-01-25 02:03:00,49.5,40.9,30.17,North,10,1.0,1.0,72,0.00,,SKC,0.00,VWS V14.01,2013-01-25 09:03:00,
2013-01-25 02:08:00,49.3,41.0,30.16,NNE,20,2.0,2.0,73,0.00,,SKC,0.00,VWS V14.01,2013-01-25 09:08:00,
2013-01-25 02:13:00,49.2,41.3,30.16,NNE,20,0.0,2.0,74,0.00,,SKC,0.00,VWS V14.01,2013-01-25 09:13:00,
2013-01-25 02:18:00,49.1,41.5,30.17,NNE,20,1.0,2.0,75,0.00,,SKC,0.00,VWS V14.01,2013-01-25 09:18:00,
2013-01-25 02:23:00,48.9,41.3,30.17,SSE,165,1.0,2.0,75,0.00,,SKC,0.00,VWS V14.01,2013-01-25 09:23:00,
2013-01-25 02:28:00,48.6,40.7,30.17,SSW,194,0.0,2.0,74,0.00,,SKC,0.00,VWS V14.01,2013-01-25 09:28:00,
2013-01-25 02:35:00,48.3,40.4,30.17,SSE,168,1.0,1.0,74,0.00,,SKC,0.00,VWS V14.01,2013-01-25 09:35:00,
2013-01-25 02:40:00,48.2,40.3,30.17,SSW,193,0.0,1.0,74,0.00,,SKC,0.00,VWS V14.01,2013-01-25 09:40:00,
2013-01-25 02:45:00,48.1,40.2,30.16,SSW,193,1.0,1.0,74,0.00,,SKC,0.00,VWS V14.01,2013-01-25 09:45:00,
2013-01-25 02:50:00,47.9,40.4,30.17,SSW,193,0.0,1.0,75,0.00,,SKC,0.00,VWS V14.01,2013-01-25 09:50:00,
2013-01-25 02:55:00,47.8,40.3,30.17,SSW,193,0.0,1.0,75,0.00,,SKC,0.00,VWS V14.01,2013-01-25 09:55:00,
2013-01-25 03:00:00,47.6,40.1,30.17,SSW,193,0.0,0.0,75,0.00,,SKC,0.00,VWS V14.01,2013-01-25 10:00:00,
2013-01-25 03:06:00,47.3,40.5,30.16,NE,51,3.0,3.0,77,0.00,,SKC,0.00,VWS V14.01,2013-01-25 10:06:00,
2013-01-25 03:11:00,47.4,40.9,30.16,NE,55,2.0,3.0,78,0.00,,SKC,0.00,VWS V14.01,2013-01-25 10:11:00,
2013-01-25 03:16:00,47.8,40.6,30.16,NE,55,0.0,3.0,76,0.00,,SKC,0.00,VWS V14.01,2013-01-25 10:16:00,
2013-01-25 03:21:00,47.9,40.7,30.16,NE,55,1.0,3.0,76,0.00,,SKC,0.00,VWS V14.01,2013-01-25 10:21:00,
2013-01-25 03:26:00,47.8,40.6,30.15,East,93,0.0,3.0,76,0.00,,SKC,0.00,VWS V14.01,2013-01-25 10:26:00,
2013-01-25 03:31:00,47.6,40.1,30.15,East,94,0.0,0.0,75,0.00,,SKC,0.00,VWS V14.01,2013-01-25 10:31:00,
2013-01-25 03:36:00,47.3,40.1,30.15,SE,127,2.0,2.0,76,0.00,,SKC,0.00,VWS V14.01,2013-01-25 10:36:00,
2013-01-25 03:41:00,47.0,39.8,30.15,SE,134,0.0,2.0,76,0.00,,SKC,0.00,VWS V14.01,2013-01-25 10:41:00,
2013-01-25 03:46:00,46.4,39.3,30.15,SE,134,0.0,2.0,76,0.00,,SKC,0.00,VWS V14.01,2013-01-25 10:46:00,
2013-01-25 03:53:00,45.8,39.3,30.15,SE,134,0.0,2.0,78,0.00,,SKC,0.00,VWS V14.01,2013-01-25 10:53:00,
2013-01-25 03:58:00,45.5,39.4,30.15,SE,134,0.0,2.0,79,0.00,,SKC,0.00,VWS V14.01,2013-01-25 10:58:00,
2013-01-25 04:03:00,45.5,39.4,30.15,SE,134,0.0,0.0,79,0.00,,SKC,0.00,VWS V14.01,2013-01-25 11:03:00,
2013-01-25 04:10:00,45.2,39.1,30.15,SE,134,0.0,1.0,79,0.00,,SKC,0.00,VWS V14.01,2013-01-25 11:10:00,
2013-01-25 04:15:00,45.3,39.2,30.16,SE,134,0.0,1.0,79,0.00,,SKC,0.00,VWS V14.01,2013-01-25 11:15:00,
2013-01-25 04:21:00,45.0,38.6,30.16,ESE,119,1.0,1.0,78,0.00,,SKC,0.00,VWS V14.01,2013-01-25 11:21:00,
2013-01-25 04:27:00,44.2,38.4,30.16,ESE,119,0.0,1.0,80,0.00,,SKC,0.00,VWS V14.01,2013-01-25 11:27:00,
2013-01-25 04:32:00,43.8,38.4,30.16,ESE,120,0.0,1.0,81,0.00,,SKC,0.00,VWS V14.01,2013-01-25 11:32:00,
2013-01-25 04:38:00,43.6,38.5,30.15,ESE,107,1.0,1.0,82,0.00,,SKC,0.00,VWS V14.01,2013-01-25 11:38:00,
2013-01-25 04:43:00,43.2,38.1,30.15,ESE,107,1.0,1.0,82,0.00,,SKC,0.00,VWS V14.01,2013-01-25 11:43:00,
2013-01-25 04:48:00,43.2,38.4,30.15,ESE,106,1.0,1.0,83,0.00,,SKC,0.00,VWS V14.01,2013-01-25 11:48:00,
2013-01-25 04:53:00,43.4,38.6,30.15,ESE,106,0.0,1.0,83,0.00,,SKC,0.00,VWS V14.01,2013-01-25 11:53:00,
2013-01-25 04:58:00,43.8,39.0,30.15,East,98,1.0,2.0,83,0.00,,SKC,0.00,VWS V14.01,2013-01-25 11:58:00,
2013-01-25 05:03:00,44.1,39.0,30.15,East,98,1.0,1.0,82,0.00,,SKC,0.00,VWS V14.01,2013-01-25 12:03:00,
2013-01-25 05:08:00,44.3,39.2,30.15,East,97,0.0,1.0,82,0.00,,SKC,0.00,VWS V14.01,2013-01-25 12:08:00,
2013-01-25 05:13:00,44.2,38.4,30.15,East,97,0.0,1.0,80,0.00,,SKC,0.00,VWS V14.01,2013-01-25 12:13:00,
2013-01-25 05:18:00,43.7,38.0,30.15,East,97,0.0,1.0,80,0.00,,SKC,0.00,VWS V14.01,2013-01-25 12:18:00,
2013-01-25 05:23:00,43.2,37.8,30.15,East,97,0.0,1.0,81,0.00,,SKC,0.00,VWS V14.01,2013-01-25 12:23:00,
2013-01-25 05:28:00,42.8,37.4,30.15,East,97,0.0,1.0,81,0.00,,SKC,0.00,VWS V14.01,2013-01-25 12:28:00,
2013-01-25 05:34:00,42.8,38.3,30.15,East,97,0.0,1.0,84,0.00,,SKC,0.00,VWS V14.01,2013-01-25 12:34:00,
2013-01-25 05:39:00,42.6,37.8,30.15,East,97,0.0,1.0,83,0.00,,SKC,0.00,VWS V14.01,2013-01-25 12:39:00,
2013-01-25 05:44:00,42.5,38.0,30.15,East,97,1.0,1.0,84,0.00,,SKC,0.00,VWS V14.01,2013-01-25 12:44:00,
2013-01-25 05:49:00,42.5,38.0,30.16,East,98,0.0,1.0,84,0.00,,SKC,0.00,VWS V14.01,2013-01-25 12:49:00,
2013-01-25 05:54:00,43.2,38.7,30.16,East,97,1.0,2.0,84,0.00,,SKC,0.00,VWS V14.01,2013-01-25 12:54:00,
2013-01-25 05:59:00,43.7,38.9,30.16,East,83,1.0,2.0,83,0.00,,SKC,0.00,VWS V14.01,2013-01-25 12:59:00,
2013-01-25 06:04:00,44.0,38.9,30.16,East,89,1.0,1.0,82,0.00,,SKC,0.00,VWS V14.01,2013-01-25 13:04:00,
2013-01-25 06:09:00,44.3,39.2,30.16,East,82,1.0,3.0,82,0.00,,SKC,0.00,VWS V14.01,2013-01-25 13:09:00,
2013-01-25 06:14:00,44.7,39.2,30.15,ENE,60,2.0,3.0,81,0.00,,SKC,0.00,VWS V14.01,2013-01-25 13:14:00,
2013-01-25 06:19:00,44.5,38.7,30.16,NE,34,3.0,3.0,80,0.00,,SKC,0.00,VWS V14.01,2013-01-25 13:19:00,
2013-01-25 06:24:00,44.1,38.7,30.16,ENE,65,1.0,3.0,81,0.00,,SKC,0.00,VWS V14.01,2013-01-25 13:24:00,
2013-01-25 06:29:00,43.6,38.5,30.16,NE,54,0.0,3.0,82,0.00,,SKC,0.00,VWS V14.01,2013-01-25 13:29:00,
2013-01-25 06:34:00,43.3,38.2,30.16,NE,53,2.0,2.0,82,0.00,,SKC,0.00,VWS V14.01,2013-01-25 13:34:00,
2013-01-25 06:39:00,43.0,38.2,30.16,NE,53,1.0,2.0,83,0.00,,SKC,0.00,VWS V14.01,2013-01-25 13:39:00,
2013-01-25 06:44:00,42.8,38.0,30.16,NE,51,2.0,2.0,83,0.00,,SKC,0.00,VWS V14.01,2013-01-25 13:44:00,
2013-01-25 06:49:00,42.9,38.1,30.16,East,83,3.0,3.0,83,0.00,,SKC,0.00,VWS V14.01,2013-01-25 13:49:00,
2013-01-25 06:54:00,43.3,38.5,30.17,ENE,75,2.0,3.0,83,0.00,,SKC,0.00,VWS V14.01,2013-01-25 13:54:00,
2013-01-25 07:00:00,43.5,38.4,30.17,East,96,2.0,4.0,82,0.00,,SKC,0.00,VWS V14.01,2013-01-25 14:00:00,
2013-01-25 07:05:00,43.4,38.3,30.17,NE,53,3.0,5.0,82,0.00,,SKC,0.00,VWS V14.01,2013-01-25 14:05:00,
2013-01-25 07:10:00,43.4,38.3,30.17,NE,56,3.0,5.0,82,0.00,,SKC,0.00,VWS V14.01,2013-01-25 14:10:00,
2013-01-25 07:15:00,43.3,38.2,30.17,NE,52,2.0,5.0,82,0.00,,SKC,0.00,VWS V14.01,2013-01-25 14:15:00,
2013-01-25 07:20:00,42.9,38.1,30.17,NE,44,2.0,5.0,83,0.00,,SKC,0.00,VWS V14.01,2013-01-25 14:20:00,
2013-01-25 07:25:00,42.8,38.3,30.17,NE,54,2.0,5.0,84,0.00,,SKC,0.00,VWS V14.01,2013-01-25 14:25:00,
2013-01-25 07:30:00,42.8,38.0,30.17,NE,48,1.0,5.0,83,0.00,,SKC,0.00,VWS V14.01,2013-01-25 14:30:00,
2013-01-25 07:35:00,42.9,38.1,30.17,ENE,57,1.0,2.0,83,0.00,,SKC,0.00,VWS V14.01,2013-01-25 14:35:00,
2013-01-25 07:40:00,43.0,38.2,30.17,ENE,60,1.0,3.0,83,0.00,,SKC,0.00,VWS V14.01,2013-01-25 14:40:00,
2013-01-25 07:45:00,42.9,38.1,30.17,ENE,77,1.0,3.0,83,0.00,,SKC,0.00,VWS V14.01,2013-01-25 14:45:00,
2013-01-25 07:50:00,42.9,38.1,30.17,East,83,1.0,3.0,83,0.00,,SKC,0.00,VWS V14.01,2013-01-25 14:50:00,
2013-01-25 07:55:00,43.6,38.5,30.16,ENE,63,1.0,3.0,82,0.00,,SKC,0.00,VWS V14.01,2013-01-25 14:55:00,
2013-01-25 08:00:00,44.7,38.9,30.16,ENE,60,1.0,1.0,80,0.00,,SKC,0.00,VWS V14.01,2013-01-25 15:00:00,
2013-01-25 08:05:00,45.4,39.0,30.17,ESE,120,2.0,2.0,78,0.00,,SKC,0.00,VWS V14.01,2013-01-25 15:05:00,
2013-01-25 08:10:00,45.1,38.7,30.17,ESE,103,1.0,3.0,78,0.00,,SKC,0.00,VWS V14.01,2013-01-25 15:10:00,
2013-01-25 08:15:00,45.1,38.7,30.17,East,101,0.0,3.0,78,0.00,,SKC,0.00,VWS V14.01,2013-01-25 15:15:00,
2013-01-25 08:20:00,45.8,39.0,30.17,East,91,2.0,3.0,77,0.00,,SKC,0.00,VWS V14.01,2013-01-25 15:20:00,
2013-01-25 08:26:00,46.3,39.5,30.17,ENE,62,2.0,3.0,77,0.00,,SKC,0.00,VWS V14.01,2013-01-25 15:26:00,
2013-01-25 08:31:00,46.8,39.7,30.17,East,96,4.0,4.0,76,0.00,,SKC,0.00,VWS V14.01,2013-01-25 15:31:00,
2013-01-25 08:36:00,47.6,40.1,30.17,East,85,2.0,4.0,75,0.00,,SKC,0.00,VWS V14.01,2013-01-25 15:36:00,
2013-01-25 08:41:00,48.3,40.1,30.17,East,100,4.0,4.0,73,0.00,,SKC,0.00,VWS V14.01,2013-01-25 15:41:00,
2013-01-25 08:46:00,48.4,40.2,30.16,NE,52,4.0,6.0,73,0.00,,SKC,0.00,VWS V14.01,2013-01-25 15:46:00,
2013-01-25 08:51:00,48.8,40.5,30.16,ENE,60,3.0,6.0,73,0.00,,SKC,0.00,VWS V14.01,2013-01-25 15:51:00,
2013-01-25 08:56:00,49.3,41.0,30.17,NE,47,3.0,6.0,73,0.00,,SKC,0.00,VWS V14.01,2013-01-25 15:56:00,
2013-01-25 09:01:00,50.0,41.0,30.16,ENE,66,2.0,4.0,71,0.00,,SKC,0.00,VWS V14.01,2013-01-25 16:01:00,
2013-01-25 09:06:00,50.8,41.4,30.16,NE,47,2.0,5.0,70,0.00,,SKC,0.00,VWS V14.01,2013-01-25 16:06:00,
2013-01-25 09:11:00,51.5,41.7,30.17,ENE,74,2.0,5.0,69,0.00,,SKC,0.00,VWS V14.01,2013-01-25 16:11:00,
2013-01-25 09:16:00,52.3,41.7,30.17,East,91,3.0,5.0,67,0.00,,SKC,0.00,VWS V14.01,2013-01-25 16:16:00,
2013-01-25 09:21:00,53.1,42.1,30.16,ESE,103,1.0,5.0,66,0.00,,SKC,0.00,VWS V14.01,2013-01-25 16:21:00,
2013-01-25 09:26:00,54.0,42.1,30.16,NE,46,5.0,6.0,64,0.00,,SKC,0.00,VWS V14.01,2013-01-25 16:26:00,
2013-01-25 09:32:00,54.8,42.9,30.16,ENE,62,3.0,4.0,64,0.00,,SKC,0.00,VWS V14.01,2013-01-25 16:32:00,
2013-01-25 09:37:00,55.9,43.1,30.17,ENE,78,4.0,4.0,62,0.00,,SKC,0.00,VWS V14.01,2013-01-25 16:37:00,
2013-01-25 09:42:00,56.8,43.1,30.17,East,87,3.0,6.0,60,0.00,,SKC,0.00,VWS V14.01,2013-01-25 16:42:00,
2013-01-25 09:47:00,57.5,43.3,30.17,East,80,3.0,6.0,59,0.00,,SKC,0.00,VWS V14.01,2013-01-25 16:47:00,
2013-01-25 09:52:00,58.5,43.3,30.17,ENE,64,4.0,6.0,57,0.00,,SKC,0.00,VWS V14.01,2013-01-25 16:52:00,
2013-01-25 09:57:00,59.3,43.6,30.17,ENE,70,2.0,6.0,56,0.00,,SKC,0.00,VWS V14.01,2013-01-25 16:57:00,
2013-01-25 10:02:00,60.2,43.5,30.17,NE,41,5.0,6.0,54,0.00,,SKC,0.00,VWS V14.01,2013-01-25 17:02:00,
2013-01-25 10:07:00,60.9,43.7,30.17,ENE,74,5.0,9.0,53,0.00,,SKC,0.00,VWS V14.01,2013-01-25 17:07:00,
2013-01-25 10:12:00,61.3,44.0,30.17,East,101,6.0,9.0,53,0.00,,SKC,0.00,VWS V14.01,2013-01-25 17:12:00,
2013-01-25 10:17:00,62.0,44.2,30.17,ENE,65,5.0,9.0,52,0.00,,SKC,0.00,VWS V14.01,2013-01-25 17:17:00,
2013-01-25 10:22:00,63.1,44.2,30.17,ESE,110,4.0,9.0,50,0.00,,SKC,0.00,VWS V14.01,2013-01-25 17:22:00,
2013-01-25 10:27:00,63.1,43.7,30.17,ESE,121,6.0,9.0,49,0.00,,SKC,0.00,VWS V14.01,2013-01-25 17:27:00,
2013-01-25 10:32:00,63.1,43.7,30.16,ESE,117,5.0,7.0,49,0.00,,SKC,0.00,VWS V14.01,2013-01-25 17:32:00,
2013-01-25 10:37:00,63.8,43.8,30.16,East,98,4.0,7.0,48,0.00,,SKC,0.00,VWS V14.01,2013-01-25 17:37:00,
2013-01-25 10:43:00,64.1,43.5,30.15,East,91,3.0,7.0,47,0.00,,SKC,0.00,VWS V14.01,2013-01-25 17:43:00,
2013-01-25 10:48:00,64.5,43.3,30.15,ESE,107,2.0,7.0,46,0.00,,SKC,0.00,VWS V14.01,2013-01-25 17:48:00,
2013-01-25 10:53:00,64.8,43.0,30.15,ENE,68,3.0,7.0,45,0.00,,SKC,0.00,VWS V14.01,2013-01-25 17:53:00,
2013-01-25 10:58:00,64.9,43.1,30.15,ENE,70,3.0,7.0,45,0.00,,SKC,0.00,VWS V14.01,2013-01-25 17:58:00,
2013-01-25 11:03:00,65.0,43.2,30.15,East,97,2.0,4.0,45,0.00,,SKC,0.00,VWS V14.01,2013-01-25 18:03:00,
2013-01-25 11:08:00,65.4,42.9,30.15,ESE,122,2.0,4.0,44,0.00,,SKC,0.00,VWS V14.01,2013-01-25 18:08:00,
2013-01-25 11:13:00,65.6,43.1,30.15,East,94,2.0,4.0,44,0.00,,SKC,0.00,VWS V14.01,2013-01-25 18:13:00,
2013-01-25 11:18:00,66.2,42.5,30.14,ESE,118,3.0,4.0,42,0.00,,SKC,0.00,VWS V14.01,2013-01-25 18:18:00,
2013-01-25 11:23:00,66.8,42.4,30.14,ENE,68,4.0,5.0,41,0.00,,SKC,0.00,VWS V14.01,2013-01-25 18:23:00,
2013-01-25 11:28:00,67.0,42.5,30.14,ESE,121,3.0,5.0,41,0.00,,SKC,0.00,VWS V14.01,2013-01-25 18:28:00,
2013-01-25 11:33:00,67.2,42.1,30.13,ESE,105,3.0,5.0,40,0.00,,SKC,0.00,VWS V14.01,2013-01-25 18:33:00,
2013-01-25 11:38:00,67.7,41.9,30.13,SSW,207,4.0,5.0,39,0.00,,SKC,0.00,VWS V14.01,2013-01-25 18:38:00,
2013-01-25 11:43:00,68.1,42.2,30.12,East,85,2.0,5.0,39,0.00,,SKC,0.00,VWS V14.01,2013-01-25 18:43:00,
2013-01-25 11:48:00,67.8,41.3,30.12,ESE,115,3.0,6.0,38,0.00,,SKC,0.00,VWS V14.01,2013-01-25 18:48:00,
2013-01-25 11:53:00,68.4,41.8,30.12,SSE,159,2.0,6.0,38,0.00,,SKC,0.00,VWS V14.01,2013-01-25 18:53:00,
2013-01-25 11:59:00,68.7,42.1,30.11,ESE,106,4.0,6.0,38,0.00,,SKC,0.00,VWS V14.01,2013-01-25 18:59:00,
2013-01-25 12:04:00,68.5,41.9,30.11,ESE,104,1.0,3.0,38,0.00,,SKC,0.00,VWS V14.01,2013-01-25 19:04:00,
2013-01-25 12:09:00,69.2,41.8,30.11,ESE,113,4.0,4.0,37,0.00,,SKC,0.00,VWS V14.01,2013-01-25 19:09:00,
2013-01-25 12:14:00,69.4,41.3,30.10,South,191,1.0,4.0,36,0.00,,SKC,0.00,VWS V14.01,2013-01-25 19:14:00,
2013-01-25 12:19:00,69.5,41.4,30.10,SE,146,2.0,5.0,36,0.00,,SKC,0.00,VWS V14.01,2013-01-25 19:19:00,
2013-01-25 12:24:00,69.8,41.7,30.10,SSE,158,3.0,5.0,36,0.00,,SKC,0.00,VWS V14.01,2013-01-25 19:24:00,
2013-01-25 12:29:00,69.8,41.7,30.09,SE,146,3.0,5.0,36,0.00,,SKC,0.00,VWS V14.01,2013-01-25 19:29:00,
2013-01-25 12:34:00,69.8,40.9,30.09,SE,129,1.0,5.0,35,0.00,,SKC,0.00,VWS V14.01,2013-01-25 19:34:00,
2013-01-25 12:39:00,70.2,41.3,30.08,SSE,168,1.0,5.0,35,0.00,,SKC,0.00,VWS V14.01,2013-01-25 19:39:00,
2013-01-25 12:44:00,70.3,41.4,30.08,ENE,72,1.0,5.0,35,0.00,,SKC,0.00,VWS V14.01,2013-01-25 19:44:00,
2013-01-25 12:49:00,70.3,41.4,30.08,East,93,1.0,5.0,35,0.00,,SKC,0.00,VWS V14.01,2013-01-25 19:49:00,
2013-01-25 12:55:00,70.3,41.4,30.07,SE,143,2.0,5.0,35,0.00,,SKC,0.00,VWS V14.01,2013-01-25 19:55:00,
2013-01-25 13:00:00,70.7,41.7,30.07,ESE,118,1.0,5.0,35,0.00,,SKC,0.00,VWS V14.01,2013-01-25 20:00:00,
2013-01-25 13:05:00,70.7,41.0,30.06,East,98,1.0,3.0,34,0.00,,SKC,0.00,VWS V14.01,2013-01-25 20:05:00,
2013-01-25 13:10:00,70.9,41.2,30.06,South,170,2.0,4.0,34,0.00,,SKC,0.00,VWS V14.01,2013-01-25 20:10:00,
2013-01-25 13:15:00,71.0,41.2,30.06,South,170,0.0,4.0,34,0.00,,SKC,0.00,VWS V14.01,2013-01-25 20:15:00,
2013-01-25 13:20:00,71.2,41.4,30.06,ESE,108,3.0,4.0,34,0.00,,SKC,0.00,VWS V14.01,2013-01-25 20:20:00,
2013-01-25 13:25:00,70.9,41.9,30.05,ESE,120,2.0,4.0,35,0.00,,SKC,0.00,VWS V14.01,2013-01-25 20:25:00,
2013-01-25 13:30:00,71.0,42.0,30.05,SE,128,2.0,2.0,35,0.00,,SKC,0.00,VWS V14.01,2013-01-25 20:30:00,
2013-01-25 13:35:00,71.2,41.4,30.05,SW,217,1.0,2.0,34,0.00,,SKC,0.00,VWS V14.01,2013-01-25 20:35:00,
2013-01-25 13:40:00,71.5,41.7,30.04,South,186,0.0,3.0,34,0.00,,SKC,0.00,VWS V14.01,2013-01-25 20:40:00,
2013-01-25 13:45:00,72.1,42.2,30.04,South,190,1.0,3.0,34,0.00,,SKC,0.00,VWS V14.01,2013-01-25 20:45:00,
2013-01-25 13:50:00,72.0,41.3,30.03,ENE,66,2.0,4.0,33,0.00,,SKC,0.00,VWS V14.01,2013-01-25 20:50:00,
2013-01-25 13:55:00,71.6,41.8,30.03,East,86,1.0,4.0,34,0.00,,SKC,0.00,VWS V14.01,2013-01-25 20:55:00,
2013-01-25 14:01:00,71.5,41.7,30.02,West,273,0.0,1.0,34,0.00,,SKC,0.00,VWS V14.01,2013-01-25 21:01:00,
2013-01-25 14:06:00,71.7,41.9,30.02,WNW,292,0.0,1.0,34,0.00,,SKC,0.00,VWS V14.01,2013-01-25 21:06:00,
2013-01-25 14:11:00,71.6,41.0,30.02,ESE,107,1.0,3.0,33,0.00,,SKC,0.00,VWS V14.01,2013-01-25 21:11:00,
2013-01-25 14:16:00,71.6,41.8,30.02,East,101,0.0,3.0,34,0.00,,SKC,0.00,VWS V14.01,2013-01-25 21:16:00,
2013-01-25 14:21:00,71.5,41.7,30.01,ESE,115,0.0,3.0,34,0.00,,SKC,0.00,VWS V14.01,2013-01-25 21:21:00,
2013-01-25 14:26:00,71.7,41.9,30.01,ESE,113,1.0,3.0,34,0.00,,SKC,0.00,VWS V14.01,2013-01-25 21:26:00,
2013-01-25 14:31:00,71.5,41.7,30.01,East,98,2.0,2.0,34,0.00,,SKC,0.00,VWS V14.01,2013-01-25 21:31:00,
2013-01-25 14:36:00,71.4,41.6,30.01,South,174,0.0,2.0,34,0.00,,SKC,0.00,VWS V14.01,2013-01-25 21:36:00,
2013-01-25 14:41:00,71.5,41.7,30.01,South,174,0.0,2.0,34,0.00,,SKC,0.00,VWS V14.01,2013-01-25 21:41:00,
2013-01-25 14:46:00,71.4,41.6,30.01,NE,45,0.0,3.0,34,0.00,,SKC,0.00,VWS V14.01,2013-01-25 21:46:00,
2013-01-25 14:51:00,71.1,41.3,30.01,NE,43,0.0,3.0,34,0.00,,SKC,0.00,VWS V14.01,2013-01-25 21:51:00,
2013-01-25 14:56:00,71.1,41.3,30.00,ENE,63,0.0,3.0,34,0.00,,SKC,0.00,VWS V14.01,2013-01-25 21:56:00,
2013-01-25 15:01:00,71.3,41.5,30.00,ENE,65,0.0,0.0,34,0.00,,SKC,0.00,VWS V14.01,2013-01-25 22:01:00,
2013-01-25 15:06:00,71.3,41.5,30.00,ENE,65,0.0,1.0,34,0.00,,SKC,0.00,VWS V14.01,2013-01-25 22:06:00,
2013-01-25 15:11:00,71.6,41.8,30.00,ENE,65,0.0,1.0,34,0.00,,SKC,0.00,VWS V14.01,2013-01-25 22:11:00,
2013-01-25 15:17:00,72.0,42.1,30.00,ENE,65,1.0,1.0,34,0.00,,SKC,0.00,VWS V14.01,2013-01-25 22:17:00,
2013-01-25 15:22:00,72.0,41.3,30.00,ENE,65,0.0,1.0,33,0.00,,SKC,0.00,VWS V14.01,2013-01-25 22:22:00,
2013-01-25 15:27:00,71.8,41.2,30.00,East,80,1.0,1.0,33,0.00,,SKC,0.00,VWS V14.01,2013-01-25 22:27:00,
2013-01-25 15:32:00,71.9,41.3,30.00,ENE,58,1.0,1.0,33,0.00,,SKC,0.00,VWS V14.01,2013-01-25 22:32:00,
2013-01-25 15:37:00,71.8,41.2,30.00,East,79,1.0,2.0,33,0.00,,SKC,0.00,VWS V14.01,2013-01-25 22:37:00,
2013-01-25 15:42:00,71.9,42.0,29.99,ESE,123,0.0,2.0,34,0.00,,SKC,0.00,VWS V14.01,2013-01-25 22:42:00,
2013-01-25 15:47:00,72.3,41.6,29.99,NNE,23,0.0,2.0,33,0.00,,SKC,0.00,VWS V14.01,2013-01-25 22:47:00,
2013-01-25 15:52:00,71.8,41.2,30.00,WNW,290,1.0,3.0,33,0.00,,SKC,0.00,VWS V14.01,2013-01-25 22:52:00,
2013-01-25 15:57:00,71.6,41.0,30.00,WNW,290,1.0,3.0,33,0.00,,SKC,0.00,VWS V14.01,2013-01-25 22:57:00,
2013-01-25 16:02:00,71.4,41.6,30.00,West,268,1.0,2.0,34,0.00,,SKC,0.00,VWS V14.01,2013-01-25 23:02:00,
2013-01-25 16:07:00,71.4,42.3,29.99,NW,314,0.0,3.0,35,0.00,,SKC,0.00,VWS V14.01,2013-01-25 23:07:00,
2013-01-25 16:12:00,71.2,42.2,29.99,WSW,240,1.0,5.0,35,0.00,,SKC,0.00,VWS V14.01,2013-01-25 23:12:00,
2013-01-25 16:17:00,71.1,42.1,29.99,West,269,0.0,5.0,35,0.00,,SKC,0.00,VWS V14.01,2013-01-25 23:17:00,
2013-01-25 16:22:00,70.9,41.9,29.99,WNW,287,2.0,5.0,35,0.00,,SKC,0.00,VWS V14.01,2013-01-25 23:22:00,
2013-01-25 16:27:00,70.8,41.8,29.99,West,260,1.0,5.0,35,0.00,,SKC,0.00,VWS V14.01,2013-01-25 23:27:00,
2013-01-25 16:32:00,70.7,41.7,29.99,West,266,0.0,1.0,35,0.00,,SKC,0.00,VWS V14.01,2013-01-25 23:32:00,
2013-01-25 16:38:00,70.7,42.5,29.98,West,270,0.0,1.0,36,0.00,,SKC,0.00,VWS V14.01,2013-01-25 23:38:00,
2013-01-25 16:43:00,70.6,42.4,29.98,North,10,1.0,3.0,36,0.00,,SKC,0.00,VWS V14.01,2013-01-25 23:43:00,
2013-01-25 16:48:00,70.5,42.3,29.98,NW,311,2.0,3.0,36,0.00,,SKC,0.00,VWS V14.01,2013-01-25 23:48:00,
2013-01-25 16:53:00,70.3,42.1,29.97,NNW,340,0.0,3.0,36,0.00,,SKC,0.00,VWS V14.01,2013-01-25 23:53:00,
2013-01-25 16:58:00,70.1,41.9,29.97,NNW,339,0.0,3.0,36,0.00,,SKC,0.00,VWS V14.01,2013-01-25 23:58:00,
2013-01-25 17:03:00,69.8,42.4,29.97,NNW,338,0.0,1.0,37,0.00,,SKC,0.00,VWS V14.01,2013-01-26 00:03:00,
2013-01-25 17:08:00,69.5,42.1,29.97,NNW,338,0.0,1.0,37,0.00,,SKC,0.00,VWS V14.01,2013-01-26 00:08:00,
2013-01-25 17:13:00,69.2,41.8,29.97,NNW,340,0.0,1.0,37,0.00,,SKC,0.00,VWS V14.01,2013-01-26 00:13:00,
2013-01-25 17:18:00,68.9,42.3,29.98,NNW,340,0.0,1.0,38,0.00,,SKC,0.00,VWS V14.01,2013-01-26 00:18:00,
2013-01-25 17:23:00,68.6,42.0,29.98,NNW,344,1.0,2.0,38,0.00,,SKC,0.00,VWS V14.01,2013-01-26 00:23:00,
2013-01-25 17:28:00,68.3,41.7,29.98,NW,316,0.0,2.0,38,0.00,,SKC,0.00,VWS V14.01,2013-01-26 00:28:00,
2013-01-25 17:33:00,68.0,41.5,29.97,NW,312,0.0,1.0,38,0.00,,SKC,0.00,VWS V14.01,2013-01-26 00:33:00,
2013-01-25 17:38:00,67.7,41.2,29.98,NW,314,1.0,1.0,38,0.00,,SKC,0.00,VWS V14.01,2013-01-26 00:38:00,
2013-01-25 17:43:00,67.4,41.6,29.98,NW,311,0.0,1.0,39,0.00,,SKC,0.00,VWS V14.01,2013-01-26 00:43:00,
2013-01-25 17:48:00,67.1,41.3,29.98,NW,308,0.0,1.0,39,0.00,,SKC,0.00,VWS V14.01,2013-01-26 00:48:00,
2013-01-25 17:53:00,66.8,41.1,29.98,NW,308,0.0,2.0,39,0.00,,SKC,0.00,VWS V14.01,2013-01-26 00:53:00,
2013-01-25 17:59:00,66.5,41.5,29.98,NW,308,0.0,2.0,40,0.00,,SKC,0.00,VWS V14.01,2013-01-26 00:59:00,
2013-01-25 18:04:00,66.2,41.2,29.98,NW,308,0.0,1.0,40,0.00,,SKC,0.00,VWS V14.01,2013-01-26 01:04:00,
2013-01-25 18:09:00,65.8,40.8,29.97,NW,308,1.0,1.0,40,0.00,,SKC,0.00,VWS V14.01,2013-01-26 01:09:00,
2013-01-25 18:14:00,65.6,41.3,29.97,NW,316,0.0,2.0,41,0.00,,SKC,0.00,VWS V14.01,2013-01-26 01:14:00,
2013-01-25 18:19:00,65.4,41.1,29.97,NW,310,1.0,2.0,41,0.00,,SKC,0.00,VWS V14.01,2013-01-26 01:19:00,
2013-01-25 18:24:00,65.2,40.9,29.97,NNW,328,0.0,2.0,41,0.00,,SKC,0.00,VWS V14.01,2013-01-26 01:24:00,
2013-01-25 18:29:00,65.1,40.8,29.97,NW,325,0.0,3.0,41,0.00,,SKC,0.00,VWS V14.01,2013-01-26 01:29:00,
2013-01-25 18:34:00,64.9,41.3,29.96,NNW,343,2.0,2.0,42,0.00,,SKC,0.00,VWS V14.01,2013-01-26 01:34:00,
2013-01-25 18:39:00,64.7,41.1,29.96,NW,320,1.0,3.0,42,0.00,,SKC,0.00,VWS V14.01,2013-01-26 01:39:00,
2013-01-25 18:44:00,64.5,40.9,29.96,North,358,0.0,3.0,42,0.00,,SKC,0.00,VWS V14.01,2013-01-26 01:44:00,
2013-01-25 18:49:00,64.1,40.6,29.97,SSW,211,2.0,3.0,42,0.00,,SKC,0.00,VWS V14.01,2013-01-26 01:49:00,
2013-01-25 18:54:00,63.2,40.3,29.97,WSW,237,1.0,3.0,43,0.00,,SKC,0.00,VWS V14.01,2013-01-26 01:54:00,
2013-01-25 18:59:00,62.8,40.6,29.97,SW,226,0.0,3.0,44,0.00,,SKC,0.00,VWS V14.01,2013-01-26 01:59:00,
2013-01-25 19:04:00,62.8,40.6,29.97,WSW,257,1.0,2.0,44,0.00,,SKC,0.00,VWS V14.01,2013-01-26 02:04:00,
2013-01-25 19:09:00,63.2,41.0,29.98,West,263,1.0,2.0,44,0.00,,SKC,0.00,VWS V14.01,2013-01-26 02:09:00,
2013-01-25 19:15:00,63.0,40.8,29.98,SSW,194,2.0,2.0,44,0.00,,SKC,0.00,VWS V14.01,2013-01-26 02:15:00,
2013-01-25 19:20:00,63.2,41.0,29.98,SSW,212,1.0,3.0,44,0.00,,SKC,0.00,VWS V14.01,2013-01-26 02:20:00,
2013-01-25 19:25:00,62.9,40.7,29.98,SSW,210,1.0,3.0,44,0.00,,SKC,0.00,VWS V14.01,2013-01-26 02:25:00,
2013-01-25 19:30:00,61.9,40.3,29.98,SSW,210,0.0,3.0,45,0.00,,SKC,0.00,VWS V14.01,2013-01-26 02:30:00,
2013-01-25 19:35:00,61.2,40.3,29.98,SSW,210,1.0,1.0,46,0.00,,SKC,0.00,VWS V14.01,2013-01-26 02:35:00,
2013-01-25 19:40:00,60.4,40.6,29.98,SSW,209,1.0,1.0,48,0.00,,SKC,0.00,VWS V14.01,2013-01-26 02:40:00,
2013-01-25 19:45:00,59.9,40.2,29.98,SE,136,0.0,1.0,48,0.00,,SKC,0.00,VWS V14.01,2013-01-26 02:45:00,
2013-01-25 19:50:00,59.6,40.4,29.98,ESE,115,0.0,2.0,49,0.00,,SKC,0.00,VWS V14.01,2013-01-26 02:50:00,
2013-01-25 19:55:00,59.4,40.2,29.98,ESE,115,0.0,2.0,49,0.00,,SKC,0.00,VWS V14.01,2013-01-26 02:55:00,
2013-01-25 20:00:00,59.0,40.9,29.98,ESE,115,0.0,2.0,51,0.00,,SKC,0.00,VWS V14.01,2013-01-26 03:00:00,
2013-01-25 20:05:00,58.7,40.6,29.98,ESE,115,0.0,1.0,51,0.00,,SKC,0.00,VWS V14.01,2013-01-26 03:05:00,
2013-01-25 20:10:00,58.4,41.3,29.98,ESE,115,0.0,1.0,53,0.00,,SKC,0.00,VWS V14.01,2013-01-26 03:10:00,
2013-01-25 20:15:00,58.1,40.6,29.98,ESE,115,0.0,1.0,52,0.00,,SKC,0.00,VWS V14.01,2013-01-26 03:15:00,
2013-01-25 20:20:00,58.0,41.0,29.98,ESE,115,0.0,1.0,53,0.00,,SKC,0.00,VWS V14.01,2013-01-26 03:20:00,
2013-01-25 20:25:00,57.9,40.9,29.98,ESE,115,0.0,1.0,53,0.00,,SKC,0.00,VWS V14.01,2013-01-26 03:25:00,
2013-01-25 20:30:00,57.5,41.0,29.98,ESE,115,0.0,0.0,54,0.00,,SKC,0.00,VWS V14.01,2013-01-26 03:30:00,
2013-01-25 20:35:00,57.7,41.2,29.98,ESE,115,0.0,1.0,54,0.00,,SKC,0.00,VWS V14.01,2013-01-26 03:35:00,
2013-01-25 20:41:00,58.2,41.2,29.98,ESE,115,0.0,1.0,53,0.00,,SKC,0.00,VWS V14.01,2013-01-26 03:41:00,
2013-01-25 20:46:00,58.1,41.1,29.98,ESE,115,0.0,1.0,53,0.00,,SKC,0.00,VWS V14.01,2013-01-26 03:46:00,
2013-01-25 20:51:00,57.7,40.7,29.98,ESE,115,0.0,1.0,53,0.00,,SKC,0.00,VWS V14.01,2013-01-26 03:51:00,
2013-01-25 20:56:00,57.3,40.8,29.98,ESE,115,1.0,1.0,54,0.00,,SKC,0.00,VWS V14.01,2013-01-26 03:56:00,
2013-01-25 21:01:00,57.2,40.7,29.98,ESE,116,0.0,0.0,54,0.00,,SKC,0.00,VWS V14.01,2013-01-26 04:01:00,
2013-01-25 21:06:00,57.2,41.2,29.98,ESE,116,1.0,1.0,55,0.00,,SKC,0.00,VWS V14.01,2013-01-26 04:06:00,
2013-01-25 21:11:00,57.3,41.3,29.97,NE,34,2.0,2.0,55,0.00,,SKC,0.00,VWS V14.01,2013-01-26 04:11:00,
2013-01-25 21:16:00,58.0,41.5,29.98,NE,35,1.0,2.0,54,0.00,,SKC,0.00,VWS V14.01,2013-01-26 04:16:00,
2013-01-25 21:21:00,58.3,41.3,29.98,NE,35,0.0,2.0,53,0.00,,SKC,0.00,VWS V14.01,2013-01-26 04:21:00,
2013-01-25 21:26:00,57.8,40.8,29.98,SE,139,1.0,2.0,53,0.00,,SKC,0.00,VWS V14.01,2013-01-26 04:26:00,
2013-01-25 21:31:00,57.5,41.0,29.98,ENE,65,1.0,2.0,54,0.00,,SKC,0.00,VWS V14.01,2013-01-26 04:31:00,
2013-01-25 21:36:00,57.5,41.0,29.98,East,85,1.0,2.0,54,0.00,,SKC,0.00,VWS V14.01,2013-01-26 04:36:00,
2013-01-25 21:41:00,57.6,40.6,29.98,ENE,61,2.0,4.0,53,0.00,,SKC,0.00,VWS V14.01,2013-01-26 04:41:00,
2013-01-25 21:46:00,57.6,40.6,29.99,ENE,65,2.0,4.0,53,0.00,,SKC,0.00,VWS V14.01,2013-01-26 04:46:00,
2013-01-25 21:51:00,57.5,40.0,29.99,East,79,2.0,4.0,52,0.00,,SKC,0.00,VWS V14.01,2013-01-26 04:51:00,
2013-01-25 21:56:00,57.3,40.3,29.99,ENE,77,2.0,4.0,53,0.00,,SKC,0.00,VWS V14.01,2013-01-26 04:56:00,
2013-01-25 22:00:00,57.1,40.2,29.99,East,85,2.0,4.0,53,0.00,,SKC,0.00,VWS V14.01,2013-01-26 05:00:00,
2013-01-25 22:01:00,57.1,40.2,29.99,NE,45,4.0,4.0,53,0.00,,SKC,0.00,VWS V14.01,2013-01-26 05:01:00,
2013-01-25 22:02:00,57.1,40.2,29.99,NE,56,2.0,4.0,53,0.00,,SKC,0.00,VWS V14.01,2013-01-26 05:02:00,
2013-01-25 22:04:00,57.0,40.1,29.99,NE,53,3.0,4.0,53,0.00,,SKC,0.00,VWS V14.01,2013-01-26 05:04:00,
2013-01-25 22:09:00,56.9,40.0,29.99,ENE,65,3.0,4.0,53,0.00,,SKC,0.00,VWS V14.01,2013-01-26 05:09:00,
2013-01-25 22:14:00,57.0,40.1,30.00,NE,35,4.0,5.0,53,0.00,,SKC,0.00,VWS V14.01,2013-01-26 05:14:00,
2013-01-25 22:19:00,57.0,40.5,30.00,ENE,78,5.0,6.0,54,0.00,,SKC,0.00,VWS V14.01,2013-01-26 05:19:00,
2013-01-25 22:24:00,57.4,40.9,30.00,NE,46,3.0,6.0,54,0.00,,SKC,0.00,VWS V14.01,2013-01-26 05:24:00,
2013-01-25 22:29:00,57.9,41.4,30.00,East,82,4.0,9.0,54,0.00,,SKC,0.00,VWS V14.01,2013-01-26 05:29:00,
2013-01-25 22:34:00,58.5,41.9,30.00,ENE,68,6.0,6.0,54,0.00,,SKC,0.00,VWS V14.01,2013-01-26 05:34:00,
2013-01-25 22:39:00,59.2,43.5,30.00,East,81,4.0,6.0,56,0.00,,SKC,0.00,VWS V14.01,2013-01-26 05:39:00,
2013-01-25 22:44:00,60.0,45.2,30.00,ESE,103,7.0,9.0,58,0.00,,SKC,0.00,VWS V14.01,2013-01-26 05:44:00,
2013-01-25 22:49:00,60.6,45.8,30.00,East,101,6.0,9.0,58,0.00,,SKC,0.00,VWS V14.01,2013-01-26 05:49:00,
2013-01-25 22:54:00,61.0,47.5,30.00,East,89,6.0,9.0,61,0.00,,SKC,0.00,VWS V14.01,2013-01-26 05:54:00,
2013-01-25 22:59:00,61.2,48.1,30.00,East,96,6.0,9.0,62,0.00,,SKC,0.00,VWS V14.01,2013-01-26 05:59:00,
2013-01-25 23:04:00,61.2,48.5,29.99,NE,56,6.0,10.0,63,0.00,,SKC,0.00,VWS V14.01,2013-01-26 06:04:00,
2013-01-25 23:09:00,61.1,48.8,29.99,East,98,8.0,11.0,64,0.00,,SKC,0.00,VWS V14.01,2013-01-26 06:09:00,
2013-01-25 23:14:00,61.0,48.8,29.99,East,90,9.0,13.0,64,0.00,,SKC,0.00,VWS V14.01,2013-01-26 06:14:00,
2013-01-25 23:19:00,60.9,48.7,29.99,SE,143,8.0,13.0,64,0.00,,SKC,0.00,VWS V14.01,2013-01-26 06:19:00,
2013-01-25 23:25:00,60.8,49.0,29.99,SE,135,7.0,13.0,65,0.00,,SKC,0.00,VWS V14.01,2013-01-26 06:25:00,
2013-01-25 23:30:00,60.7,48.9,29.99,SE,139,5.0,13.0,65,0.00,,SKC,0.00,VWS V14.01,2013-01-26 06:30:00,
2013-01-25 23:35:00,60.6,48.8,29.98,SE,127,11.0,11.0,65,0.00,,SKC,0.00,VWS V14.01,2013-01-26 06:35:00,
2013-01-25 23:40:00,60.6,48.8,29.98,ESE,120,10.0,12.0,65,0.00,,SKC,0.00,VWS V14.01,2013-01-26 06:40:00,
2013-01-25 23:45:00,60.5,48.7,29.98,ESE,121,5.0,12.0,65,0.00,,SKC,0.00,VWS V14.01,2013-01-26 06:45:00,
2013-01-25 23:50:00,60.3,48.9,29.97,ESE,115,5.0,12.0,66,0.00,,SKC,0.00,VWS V14.01,2013-01-26 06:50:00,
2013-01-25 23:55:00,60.1,49.1,29.97,East,101,3.0,12.0,67,0.00,,SKC,0.00,VWS V14.01,2013-01-26 06:55:00,